Time;durP1;ratioP1;P1;durP2;ratioP2;P2;SDS_P1;SDS_P2;PMS_P1;PMS_P2;Temp;Humidity;BMP_temperature;BMP_pressure;BME280_temperature;BME280_humidity;BME280_pressure;Samples;Min_cycle;Max_cycle;Signal;HPM_P1;HPM_P2
2022/06/25 00:01:29;;;;;;;4.20;2.60;;;;;;;20.17;81.79;100726.59;5049562;28;20045;-49
2022/06/25 00:07:22;;;;;;;5.72;2.70;;;;;;;20.09;82.32;100724.69;5054649;28;20045;-49
2022/06/25 00:10:10;;;;;;;4.32;2.40;;;;;;;20.11;82.18;100727.94;5058282;28;20044;-48
2022/06/25 00:12:57;;;;;;;6.05;2.50;;;;;;;20.11;81.94;100725.19;5072487;28;20041;-51
2022/06/25 00:15:46;;;;;;;3.35;2.40;;;;;;;20.10;81.92;100731.84;5065728;28;20440;-50
2022/06/25 00:18:33;;;;;;;5.13;2.40;;;;;;;20.13;81.68;100731.16;5061285;28;20055;-48
2022/06/25 00:21:21;;;;;;;8.05;2.80;;;;;;;20.12;81.74;100740.63;5061080;28;20091;-49
2022/06/25 00:24:09;;;;;;;3.10;2.30;;;;;;;20.15;81.71;100739.94;5056554;28;20103;-50
2022/06/25 00:26:57;;;;;;;5.95;2.70;;;;;;;20.15;81.62;100751.00;5050491;28;20063;-47
2022/06/25 00:29:44;;;;;;;4.68;2.40;;;;;;;20.13;81.78;100739.47;5059077;28;20044;-49
2022/06/25 00:32:32;;;;;;;4.95;2.45;;;;;;;20.09;81.71;100741.28;5053453;28;20080;-52
2022/06/25 00:35:19;;;;;;;4.70;2.30;;;;;;;20.06;81.69;100744.72;5026261;28;20041;-48
2022/06/25 00:38:07;;;;;;;5.63;2.08;;;;;;;20.07;81.83;100746.34;5068475;28;20052;-48
2022/06/25 00:40:55;;;;;;;3.53;2.35;;;;;;;20.05;81.61;100746.66;5067572;28;20049;-48
2022/06/25 00:43:42;;;;;;;3.83;2.40;;;;;;;20.08;81.58;100740.47;5054442;28;20037;-46
2022/06/25 00:46:30;;;;;;;2.47;2.13;;;;;;;20.10;81.35;100734.59;5064535;28;20047;-49
2022/06/25 00:49:18;;;;;;;3.72;2.22;;;;;;;20.13;81.27;100747.75;5074459;28;20055;-49
2022/06/25 00:52:12;;;;;;;5.20;2.40;;;;;;;20.13;81.41;100750.53;5067166;28;20395;-50
2022/06/25 00:55:06;;;;;;;4.85;2.20;;;;;;;20.13;80.97;100750.53;5048931;28;20044;-49
2022/06/25 00:57:55;;;;;;;4.10;2.40;;;;;;;20.02;81.19;100744.59;5076176;28;20052;-49
2022/06/25 01:00:43;;;;;;;3.30;2.38;;;;;;;19.95;81.62;100747.06;5044619;28;20056;-48
2022/06/25 01:03:31;;;;;;;3.42;2.30;;;;;;;19.90;81.47;100755.53;5035200;28;20408;-48
2022/06/25 01:06:18;;;;;;;4.60;2.28;;;;;;;19.84;81.79;100757.66;5037052;28;20462;-51
2022/06/25 01:09:06;;;;;;;5.88;2.28;;;;;;;19.78;82.27;100757.06;5053781;28;20045;-48
2022/06/25 01:11:54;;;;;;;5.22;2.47;;;;;;;19.74;82.51;100758.84;5049034;28;20479;-48
2022/06/25 01:14:42;;;;;;;5.45;2.30;;;;;;;19.75;82.26;100765.22;5050487;28;20406;-48
2022/06/25 01:17:30;;;;;;;2.92;2.00;;;;;;;19.75;82.39;100770.75;5039906;28;20132;-47
2022/06/25 01:20:21;;;;;;;2.58;2.13;;;;;;;19.77;82.35;100768.44;5042526;28;20129;-51
2022/06/25 01:23:10;;;;;;;5.22;1.98;;;;;;;19.81;82.20;100774.13;5026951;28;20049;-49
2022/06/25 01:25:57;;;;;;;2.67;1.98;;;;;;;19.81;81.97;100772.16;5072036;28;20056;-50
2022/06/25 01:28:45;;;;;;;2.45;1.95;;;;;;;19.77;82.02;100774.78;5037839;28;20048;-47
2022/06/25 01:31:33;;;;;;;4.65;2.30;;;;;;;19.75;81.92;100784.56;5038708;28;20052;-50
2022/06/25 01:34:20;;;;;;;3.30;2.05;;;;;;;19.72;81.76;100787.97;5039619;28;20110;-48
2022/06/25 01:37:08;;;;;;;3.33;1.92;;;;;;;19.68;82.33;100781.50;5053866;28;20044;-50
2022/06/25 01:39:57;;;;;;;3.30;2.10;;;;;;;19.65;82.40;100787.63;5048477;28;20045;-50
2022/06/25 01:42:59;;;;;;;2.63;2.08;;;;;;;19.69;82.41;100788.63;5049616;28;20036;-47
2022/06/25 01:45:47;;;;;;;3.58;2.33;;;;;;;19.68;81.82;100789.78;5074056;28;20052;-48
2022/06/25 01:48:35;;;;;;;3.15;2.28;;;;;;;19.62;81.88;100789.13;5042258;28;20063;-51
2022/06/25 01:51:22;;;;;;;5.65;2.28;;;;;;;19.58;82.03;100793.69;5047874;28;20057;-51
2022/06/25 01:54:10;;;;;;;4.93;2.15;;;;;;;19.58;82.10;100794.50;5039958;28;20041;-49
2022/06/25 01:56:58;;;;;;;2.85;2.03;;;;;;;19.66;82.19;100805.88;5038878;28;20045;-50
2022/06/25 01:59:26;;;;;;;3.13;1.85;;;;;;;19.71;81.43;100811.25;5017579;28;20040;-50
2022/06/25 02:02:14;;;;;;;5.50;2.30;;;;;;;19.68;81.42;100809.16;5055064;28;20125;-48
2022/06/25 02:05:02;;;;;;;5.03;2.28;;;;;;;19.73;81.42;100818.06;5063994;28;20052;-48
2022/06/25 02:07:50;;;;;;;3.22;1.90;;;;;;;19.74;80.99;100821.63;5052047;28;20454;-50
2022/06/25 02:10:38;;;;;;;5.53;2.47;;;;;;;19.77;80.68;100823.72;5033611;28;20053;-49
2022/06/25 02:13:26;;;;;;;2.80;1.92;;;;;;;19.69;80.64;100828.16;5053815;28;20403;-48
2022/06/25 02:15:55;;;;;;;3.38;2.15;;;;;;;19.66;80.96;100827.97;5035388;28;20049;-48
2022/06/25 02:18:42;;;;;;;4.35;2.40;;;;;;;19.63;80.75;100828.66;5033343;28;20044;-47
2022/06/25 02:21:30;;;;;;;4.75;2.22;;;;;;;19.65;81.09;100834.63;5053297;28;20520;-46
2022/06/25 02:24:18;;;;;;;4.03;2.22;;;;;;;19.64;80.74;100839.34;5053684;28;20036;-48
2022/06/25 02:27:05;;;;;;;6.63;2.65;;;;;;;19.50;80.36;100842.31;5053556;28;20518;-49
2022/06/25 02:29:53;;;;;;;6.18;2.65;;;;;;;19.43;81.04;100842.00;5056112;28;20063;-47
2022/06/25 02:32:40;;;;;;;3.55;2.20;;;;;;;19.39;80.81;100841.03;5049555;28;20053;-45
2022/06/25 02:35:29;;;;;;;4.80;2.40;;;;;;;19.39;80.80;100846.56;5040656;28;20470;-49
2022/06/25 02:38:16;;;;;;;4.20;2.38;;;;;;;19.41;81.19;100855.34;5050150;28;20132;-48
2022/06/25 02:41:09;;;;;;;8.65;2.67;;;;;;;19.42;80.88;100853.38;5052626;28;20048;-52
2022/06/25 02:43:57;;;;;;;5.40;2.38;;;;;;;19.43;80.70;100863.28;5050393;28;20048;-49
2022/06/25 02:46:55;;;;;;;4.55;2.40;;;;;;;19.40;80.30;100858.41;5058593;28;20076;-46
2022/06/25 02:49:47;;;;;;;3.10;1.90;;;;;;;19.33;81.01;100869.97;5046742;28;20049;-53
2022/06/25 02:52:35;;;;;;;8.15;2.70;;;;;;;19.35;80.73;100864.94;5038286;28;20096;-52
2022/06/25 02:58:54;;;;;;;4.47;2.40;;;;;;;19.37;80.54;100873.72;5037060;28;20151;-49
2022/06/25 03:01:41;;;;;;;5.70;2.20;;;;;;;19.36;80.27;100877.59;5051581;28;20057;-48
2022/06/25 03:04:30;;;;;;;9.00;3.22;;;;;;;19.32;80.12;100874.69;5051946;28;20102;-48
2022/06/25 03:07:18;;;;;;;4.78;2.70;;;;;;;19.28;80.41;100872.91;5047604;28;20048;-49
2022/06/25 03:10:06;;;;;;;4.30;2.30;;;;;;;19.24;80.63;100872.75;5033172;28;20106;-49
2022/06/25 03:12:54;;;;;;;8.88;2.78;;;;;;;19.21;80.75;100867.03;5022391;28;20044;-49
2022/06/25 03:15:45;;;;;;;4.82;2.40;;;;;;;19.14;80.81;100879.38;5037733;28;20087;-49
2022/06/25 03:18:34;;;;;;;5.80;2.40;;;;;;;19.19;80.96;100877.59;5036687;28;20139;-48
2022/06/25 03:21:28;;;;;;;7.85;2.80;;;;;;;19.19;80.81;100883.13;5050635;28;20471;-49
2022/06/25 03:24:20;;;;;;;4.57;2.75;;;;;;;19.19;80.96;100880.38;5039657;28;20111;-48
2022/06/25 03:27:09;;;;;;;6.75;2.80;;;;;;;19.17;80.83;100883.47;5037833;28;20048;-49
2022/06/25 03:29:57;;;;;;;5.30;2.67;;;;;;;19.16;80.63;100879.88;5055388;28;20487;-47
2022/06/25 03:32:44;;;;;;;6.70;2.83;;;;;;;19.12;80.92;100883.59;5053836;28;20129;-50
2022/06/25 03:35:52;;;;;;;7.65;3.00;;;;;;;19.09;80.96;100885.06;5054062;28;20471;-49
2022/06/25 03:38:42;;;;;;;4.57;2.60;;;;;;;19.05;81.22;100881.34;5039337;28;20099;-49
2022/06/25 03:41:35;;;;;;;5.93;2.90;;;;;;;19.03;81.43;100889.16;5046890;28;20041;-49
2022/06/25 03:44:52;;;;;;;3.38;2.28;;;;;;;19.07;81.46;100884.59;5063884;28;20081;-48
2022/06/25 03:47:52;;;;;;;5.25;2.67;;;;;;;19.09;81.32;100884.25;5047050;28;20051;-49
2022/06/25 03:50:42;;;;;;;8.55;2.70;;;;;;;19.13;81.47;100882.50;5050890;28;20098;-46
2022/06/25 03:53:30;;;;;;;5.07;2.90;;;;;;;19.14;81.20;100884.09;5061365;28;20041;-45
2022/06/25 03:56:18;;;;;;;3.95;2.53;;;;;;;19.13;81.17;100883.28;5075482;28;20123;-45
2022/06/25 03:59:06;;;;;;;4.38;2.65;;;;;;;19.14;81.25;100881.34;5051398;28;20498;-45
2022/06/25 04:01:54;;;;;;;6.05;2.60;;;;;;;19.11;81.38;100882.00;5074198;28;20410;-46
2022/06/25 04:04:42;;;;;;;7.93;3.30;;;;;;;19.07;81.63;100895.66;5073542;28;20087;-45
2022/06/25 04:07:29;;;;;;;6.18;2.45;;;;;;;19.09;81.85;100903.59;5046408;28;20135;-46
2022/06/25 04:10:18;;;;;;;4.25;2.50;;;;;;;19.10;81.87;100900.53;5054973;28;20137;-45
2022/06/25 04:13:06;;;;;;;5.90;2.92;;;;;;;19.10;81.95;100900.53;5055209;28;20048;-46
2022/06/25 04:15:55;;;;;;;5.85;2.75;;;;;;;19.11;82.35;100901.31;5027888;28;20041;-48
2022/06/25 04:18:48;;;;;;;6.03;2.40;;;;;;;19.12;82.16;100897.41;5037144;28;20049;-45
2022/06/25 04:21:38;;;;;;;5.68;3.13;;;;;;;19.10;82.50;100892.22;5048850;28;20129;-51
2022/06/25 04:24:26;;;;;;;7.13;2.90;;;;;;;19.07;82.88;100903.94;5052895;28;20049;-48
2022/06/25 04:29:03;;;;;;;7.80;3.20;;;;;;;19.08;83.11;100899.22;5055263;28;20052;-48
2022/06/25 04:30:23;;;;;;;5.05;2.90;;;;;;;19.07;83.38;100903.94;5045857;28;20053;-48
2022/06/25 04:33:13;;;;;;;6.05;2.72;;;;;;;19.14;83.09;100904.25;5074461;28;20128;-50
2022/06/25 04:36:13;;;;;;;5.13;2.08;;;;;;;19.10;83.57;100910.75;5042640;28;20049;-50
2022/06/25 04:39:06;;;;;;;5.13;2.58;;;;;;;19.05;84.18;100911.72;5063598;28;20095;-48
2022/06/25 04:41:39;;;;;;;9.45;2.70;;;;;;;19.10;83.98;100914.31;5069541;28;20047;-47
2022/06/25 04:44:35;;;;;;;5.22;2.50;;;;;;;19.21;83.62;100925.88;5049998;28;20045;-47
2022/06/25 04:47:23;;;;;;;7.05;2.67;;;;;;;19.26;83.23;100919.38;5048462;28;20048;-47
2022/06/25 04:50:20;;;;;;;6.55;2.70;;;;;;;19.27;83.12;100923.78;5072290;28;20040;-49
2022/06/25 04:53:08;;;;;;;5.07;2.70;;;;;;;19.23;83.45;100928.31;5059919;28;20064;-50
2022/06/25 04:55:56;;;;;;;8.20;3.20;;;;;;;19.24;83.53;100932.69;5044055;28;20103;-49
2022/06/25 04:58:43;;;;;;;4.05;2.05;;;;;;;19.29;83.47;100940.81;5032183;28;20135;-50
2022/06/25 05:01:50;;;;;;;5.95;2.90;;;;;;;19.28;83.79;100940.00;5050895;28;20095;-51
2022/06/25 05:05:01;;;;;;;3.15;2.33;;;;;;;19.33;83.42;100939.03;5050973;28;20041;-50
2022/06/25 05:07:49;;;;;;;5.05;2.80;;;;;;;19.39;83.36;100939.72;5049786;28;20089;-49
2022/06/25 05:10:37;;;;;;;4.88;2.70;;;;;;;19.49;82.70;100945.72;5053604;28;20049;-52
2022/06/25 05:13:24;;;;;;;10.60;3.10;;;;;;;19.54;82.47;100940.00;5047322;28;20041;-49
2022/06/25 05:16:12;;;;;;;2.95;2.20;;;;;;;19.61;81.82;100947.00;5037192;28;20041;-51
2022/06/25 05:19:00;;;;;;;6.82;2.53;;;;;;;19.63;81.92;100948.31;5053693;28;20080;-48
2022/06/25 05:21:30;;;;;;;6.45;2.83;;;;;;;19.61;82.24;100938.72;5051879;28;20037;-48
2022/06/25 05:24:22;;;;;;;9.65;3.00;;;;;;;19.58;82.59;100943.75;5053062;28;20041;-45
2022/06/25 05:27:10;;;;;;;6.60;2.35;;;;;;;19.58;81.62;100943.75;5047846;28;20575;-50
2022/06/25 05:29:58;;;;;;;5.25;2.65;;;;;;;19.66;81.63;100944.09;5052396;28;20045;-47
2022/06/25 05:32:46;;;;;;;4.53;2.53;;;;;;;19.68;81.75;100952.91;5039232;28;20131;-46
2022/06/25 05:35:34;;;;;;;9.27;2.63;;;;;;;19.66;81.71;100949.59;5029990;28;20458;-49
2022/06/25 05:38:24;;;;;;;4.53;2.80;;;;;;;19.72;81.68;100960.22;5066054;28;20056;-47
2022/06/25 05:41:12;;;;;;;6.15;2.58;;;;;;;19.69;81.66;100962.81;5067126;28;20159;-46
2022/06/25 05:44:00;;;;;;;4.25;2.20;;;;;;;19.72;81.31;100970.44;5058468;28;20049;-46
2022/06/25 05:46:47;;;;;;;2.65;1.90;;;;;;;19.69;81.34;100965.56;5058436;28;20047;-45
2022/06/25 05:49:35;;;;;;;6.10;2.50;;;;;;;19.76;81.15;100965.88;5059149;28;20090;-46
2022/06/25 05:52:23;;;;;;;9.15;2.58;;;;;;;19.78;81.06;100980.19;5051627;28;20098;-46
2022/06/25 05:55:12;;;;;;;6.03;3.20;;;;;;;19.73;81.63;100981.19;5070161;28;20422;-48
2022/06/25 05:58:00;;;;;;;7.32;2.55;;;;;;;19.73;81.66;100972.88;5063345;28;20098;-46
2022/06/25 06:00:47;;;;;;;7.13;2.58;;;;;;;19.80;81.47;100977.94;5048490;28;20073;-48
2022/06/25 06:03:35;;;;;;;7.35;2.83;;;;;;;19.83;81.11;100982.78;5064105;28;20054;-48
2022/06/25 06:06:23;;;;;;;4.82;1.90;;;;;;;19.93;80.08;100990.75;5051387;28;20088;-49
2022/06/25 06:09:11;;;;;;;7.38;3.00;;;;;;;20.02;79.94;100995.47;5039259;28;20060;-48
2022/06/25 06:11:59;;;;;;;2.95;2.13;;;;;;;20.00;79.64;100999.34;5064123;28;20075;-50
2022/06/25 06:14:47;;;;;;;6.45;2.72;;;;;;;20.01;79.88;100997.41;5069107;28;20049;-46
2022/06/25 06:17:35;;;;;;;3.78;2.40;;;;;;;20.04;79.35;101001.50;5041281;28;20060;-44
2022/06/25 06:20:23;;;;;;;6.10;2.53;;;;;;;20.07;79.61;101003.59;5055185;28;20045;-46
2022/06/25 06:23:10;;;;;;;5.65;2.20;;;;;;;20.00;79.53;100999.34;5045537;28;20526;-45
2022/06/25 06:25:58;;;;;;;7.88;2.78;;;;;;;20.02;79.31;101003.78;5050783;28;20042;-46
2022/06/25 06:28:46;;;;;;;4.70;2.50;;;;;;;20.13;79.19;101005.88;5045065;28;20049;-45
2022/06/25 06:31:33;;;;;;;8.50;2.40;;;;;;;20.16;78.98;100998.88;5057960;28;20407;-45
2022/06/25 06:34:21;;;;;;;4.38;2.35;;;;;;;20.16;78.44;101002.44;5041409;28;20057;-45
2022/06/25 06:37:09;;;;;;;4.50;2.30;;;;;;;20.06;79.01;101000.03;5047507;28;20460;-46
2022/06/25 06:40:01;;;;;;;5.18;2.50;;;;;;;20.06;78.67;100999.19;5062207;28;20055;-48
2022/06/25 06:42:49;;;;;;;5.22;2.28;;;;;;;20.04;78.69;101004.25;5052781;28;20049;-49
2022/06/25 06:45:36;;;;;;;7.53;2.22;;;;;;;20.08;78.99;101002.44;5050604;28;20518;-50
2022/06/25 06:48:24;;;;;;;5.10;2.38;;;;;;;20.07;78.36;100998.88;5046598;28;20037;-51
2022/06/25 06:51:12;;;;;;;5.15;2.42;;;;;;;20.10;78.33;101002.94;5044556;28;20053;-53
2022/06/25 06:53:59;;;;;;;6.65;2.35;;;;;;;20.09;78.64;101002.13;5040911;28;20038;-53
2022/06/25 06:56:47;;;;;;;5.55;2.50;;;;;;;20.09;77.92;101006.84;5049989;28;20495;-48
2022/06/25 06:59:35;;;;;;;5.32;2.45;;;;;;;20.14;77.71;101013.00;5047800;28;20056;-47
2022/06/25 07:02:23;;;;;;;3.72;2.40;;;;;;;20.16;77.96;101019.03;5047278;28;20069;-48
2022/06/25 07:05:11;;;;;;;6.28;2.60;;;;;;;20.20;77.65;101010.88;5046334;28;20456;-50
2022/06/25 07:07:58;;;;;;;6.72;2.55;;;;;;;20.22;77.68;101017.72;5046194;28;20060;-49
2022/06/25 07:10:46;;;;;;;10.18;2.90;;;;;;;20.17;77.49;101017.88;5049554;28;20056;-48
2022/06/25 07:13:34;;;;;;;9.60;3.25;;;;;;;20.17;77.71;101022.59;5045743;28;20076;-50
2022/06/25 07:16:22;;;;;;;9.68;3.97;;;;;;;20.21;77.67;101015.28;5052465;28;20087;-49
2022/06/25 07:18:57;;;;;;;20.50;6.70;;;;;;;20.20;77.71;101019.19;5040854;28;20533;-49
2022/06/25 07:21:45;;;;;;;7.50;2.90;;;;;;;20.16;77.59;101021.81;5052349;28;20483;-50
2022/06/25 07:24:32;;;;;;;21.73;6.57;;;;;;;20.20;78.79;101024.72;5042556;28;20099;-48
2022/06/25 07:27:14;;;;;;;11.05;3.60;;;;;;;20.30;78.08;101029.09;5049261;28;20048;-47
2022/06/25 07:30:02;;;;;;;7.85;3.10;;;;;;;20.38;77.80;101026.31;5046795;28;20040;-49
2022/06/25 07:32:50;;;;;;;7.05;2.85;;;;;;;20.43;76.98;101028.91;5047488;28;20045;-48
2022/06/25 07:35:38;;;;;;;6.18;2.65;;;;;;;20.49;77.40;101031.47;5052395;28;20045;-45
2022/06/25 07:38:25;;;;;;;6.63;2.55;;;;;;;20.56;76.76;101031.81;5050627;28;20442;-45
2022/06/25 07:41:13;;;;;;;6.60;2.40;;;;;;;20.59;76.82;101020.09;5048418;28;20558;-45
2022/06/25 07:44:02;;;;;;;7.20;2.67;;;;;;;20.65;75.70;101024.31;5036036;28;20056;-45
2022/06/25 07:46:49;;;;;;;7.22;2.40;;;;;;;20.65;75.34;101027.06;5043392;28;20041;-45
2022/06/25 07:52:43;;;;;;;4.32;2.33;;;;;;;20.68;74.89;101028.38;5048807;28;20045;-45
2022/06/25 07:55:34;;;;;;;5.18;2.53;;;;;;;20.62;75.57;101025.78;5043866;28;20042;-48
2022/06/25 07:58:23;;;;;;;8.68;2.60;;;;;;;20.56;76.53;101031.81;5048456;28;20087;-48
2022/06/25 08:01:11;;;;;;;4.30;2.13;;;;;;;20.53;76.04;101029.69;5048787;28;20128;-48
2022/06/25 08:03:58;;;;;;;5.07;2.80;;;;;;;20.50;75.96;101024.81;5052108;28;20126;-47
2022/06/25 08:06:47;;;;;;;6.18;2.55;;;;;;;20.50;76.15;101027.59;5051124;28;20048;-48
2022/06/25 08:09:34;;;;;;;9.32;2.90;;;;;;;20.53;76.16;101029.69;5052563;28;20048;-48
2022/06/25 08:12:22;;;;;;;11.23;3.88;;;;;;;20.53;76.04;101027.72;5051936;28;20518;-47
2022/06/25 08:15:10;;;;;;;5.22;2.30;;;;;;;20.49;76.07;101035.06;5052357;28;20396;-50
2022/06/25 08:17:58;;;;;;;7.97;3.00;;;;;;;20.48;75.93;101035.41;5032933;28;20075;-47
2022/06/25 08:20:35;;;;;;;6.18;2.70;;;;;;;20.43;76.35;101034.44;5036143;28;20124;-46
2022/06/25 08:23:22;;;;;;;5.63;2.20;;;;;;;20.39;76.42;101036.22;5037633;28;20045;-46
2022/06/25 08:26:10;;;;;;;7.20;2.33;;;;;;;20.38;76.77;101037.38;5045873;28;20044;-46
2022/06/25 08:28:58;;;;;;;7.13;2.60;;;;;;;20.41;76.80;101036.72;5051985;28;20053;-47
2022/06/25 08:31:45;;;;;;;5.57;2.75;;;;;;;20.45;76.70;101036.88;5052018;28;20048;-46
2022/06/25 08:34:33;;;;;;;8.65;2.58;;;;;;;20.44;76.78;101032.47;5055071;28;20049;-46
2022/06/25 08:37:20;;;;;;;6.32;2.40;;;;;;;20.41;77.25;101039.47;5038369;28;20041;-47
2022/06/25 08:40:09;;;;;;;6.45;2.35;;;;;;;20.36;77.53;101039.66;5074680;28;20475;-46
2022/06/25 08:42:56;;;;;;;4.35;2.10;;;;;;;20.34;77.71;101046.66;5075002;28;20059;-46
2022/06/25 08:45:44;;;;;;;5.65;2.13;;;;;;;20.31;77.81;101045.38;5053924;28;20053;-46
2022/06/25 08:48:33;;;;;;;3.55;2.00;;;;;;;20.29;77.84;101039.34;5073405;28;20479;-47
2022/06/25 08:51:21;;;;;;;4.80;2.65;;;;;;;20.29;78.72;101050.41;5075873;28;20052;-49
2022/06/25 08:54:09;;;;;;;6.47;2.50;;;;;;;20.29;79.36;101050.41;5076289;28;20051;-49
2022/06/25 08:56:57;;;;;;;5.43;2.30;;;;;;;20.32;79.70;101048.94;5050645;28;20426;-49
2022/06/25 08:59:45;;;;;;;4.70;2.50;;;;;;;20.35;79.55;101048.31;5060573;28;20052;-48
2022/06/25 09:02:32;;;;;;;4.18;2.58;;;;;;;20.36;79.61;101050.72;5046083;28;20059;-50
2022/06/25 09:05:41;;;;;;;4.75;2.63;;;;;;;20.37;79.55;101052.38;5069095;28;20060;-49
2022/06/25 09:08:29;;;;;;;5.43;2.35;;;;;;;20.37;79.98;101049.59;5057641;28;20049;-47
2022/06/25 09:11:16;;;;;;;5.13;2.80;;;;;;;20.40;80.44;101048.13;5074843;28;20048;-49
2022/06/25 09:14:19;;;;;;;8.27;2.60;;;;;;;20.48;80.40;101054.78;5075036;28;20041;-50
2022/06/25 09:17:10;;;;;;;5.45;2.22;;;;;;;20.58;79.16;101051.69;5052669;28;20041;-48
2022/06/25 09:19:59;;;;;;;9.20;2.47;;;;;;;20.66;78.94;101052.81;5060280;28;20041;-49
2022/06/25 09:22:59;;;;;;;5.70;2.70;;;;;;;20.73;78.42;101044.78;5074382;28;20040;-52
2022/06/25 09:26:00;;;;;;;3.45;2.00;;;;;;;20.76;77.41;101044.16;5063550;28;20041;-49
2022/06/25 09:28:48;;;;;;;6.75;2.30;;;;;;;20.75;77.29;101045.28;5054317;28;20056;-50
2022/06/25 09:31:37;;;;;;;5.53;2.17;;;;;;;20.73;77.34;101040.06;5074118;28;20055;-48
2022/06/25 09:34:33;;;;;;;5.35;2.05;;;;;;;20.69;77.06;101046.63;5059776;28;20502;-47
2022/06/25 09:37:26;;;;;;;4.85;1.95;;;;;;;20.63;76.89;101048.72;5055025;28;20503;-49
2022/06/25 09:39:55;;;;;;;5.65;2.20;;;;;;;20.61;77.03;101046.31;5056642;28;20047;-48
2022/06/25 09:42:44;;;;;;;5.30;2.17;;;;;;;20.64;77.30;101051.19;5074203;28;20509;-49
2022/06/25 09:45:36;;;;;;;5.50;2.45;;;;;;;20.63;77.27;101046.78;5052980;28;20041;-47
2022/06/25 09:48:29;;;;;;;7.75;2.92;;;;;;;20.67;76.98;101044.16;5041599;28;20044;-46
2022/06/25 09:51:26;;;;;;;4.25;2.47;;;;;;;20.73;76.50;101042.81;5058008;28;20044;-52
2022/06/25 09:54:13;;;;;;;4.72;2.25;;;;;;;20.82;76.26;101045.56;5063136;28;20040;-45
2022/06/25 09:57:01;;;;;;;4.05;2.13;;;;;;;20.89;75.88;101054.19;5067548;28;20423;-47
2022/06/25 09:59:50;;;;;;;4.07;2.22;;;;;;;20.96;75.74;101056.44;5043256;28;20052;-52
2022/06/25 10:02:38;;;;;;;5.20;2.08;;;;;;;20.99;75.47;101053.00;5027385;28;20090;-51
2022/06/25 10:05:34;;;;;;;4.70;2.00;;;;;;;21.02;75.10;101049.56;5034679;28;20053;-49
2022/06/25 10:08:23;;;;;;;4.88;2.35;;;;;;;21.02;74.96;101053.16;5031122;28;20037;-51
2022/06/25 10:11:10;;;;;;;7.43;2.20;;;;;;;21.01;75.46;101050.72;5020004;28;20041;-49
2022/06/25 10:13:58;;;;;;;4.78;1.92;;;;;;;21.00;75.85;101060.19;5041233;28;20041;-49
2022/06/25 10:16:46;;;;;;;8.35;2.83;;;;;;;21.01;75.59;101061.78;5032497;28;20049;-52
2022/06/25 10:19:34;;;;;;;10.02;2.90;;;;;;;21.03;75.79;101065.84;5011853;28;20056;-51
2022/06/25 10:22:22;;;;;;;7.43;2.90;;;;;;;21.06;75.41;101050.53;5031100;28;20419;-52
2022/06/25 10:25:12;;;;;;;9.73;3.00;;;;;;;21.06;75.11;101056.88;5014027;28;20056;-50
2022/06/25 10:28:04;;;;;;;7.75;2.85;;;;;;;21.08;75.17;101052.97;5045434;28;20037;-53
2022/06/25 10:30:54;;;;;;;7.57;2.53;;;;;;;21.08;75.20;101048.22;5041723;28;20045;-50
2022/06/25 10:33:59;;;;;;;4.90;2.25;;;;;;;21.06;75.01;101050.53;5026109;28;20056;-52
2022/06/25 10:36:48;;;;;;;8.15;2.88;;;;;;;21.06;75.55;101067.16;5038426;28;20052;-50
2022/06/25 10:39:36;;;;;;;4.35;2.20;;;;;;;21.07;75.97;101057.72;5020681;28;20089;-49
2022/06/25 10:45:32;;;;;;;5.15;2.53;;;;;;;21.21;75.75;101052.75;5034419;28;20040;-49
2022/06/25 10:48:22;;;;;;;4.90;2.17;;;;;;;21.33;74.87;101051.19;5052134;28;20528;-53
2022/06/25 10:51:31;;;;;;;4.43;2.30;;;;;;;21.40;74.57;101045.97;5038076;28;20079;-51
2022/06/25 10:54:25;;;;;;;4.65;2.25;;;;;;;21.53;73.95;101049.63;4332479;28;10000356;-48
2022/06/25 10:57:13;;;;;;;2.92;1.63;;;;;;;21.62;72.28;101050.38;5049220;28;20049;-50
2022/06/25 11:00:03;;;;;;;4.32;2.10;;;;;;;21.74;71.41;101049.63;5021000;28;20047;-48
2022/06/25 11:02:53;;;;;;;3.97;1.92;;;;;;;21.82;70.00;101048.75;5038865;28;20052;-51
2022/06/25 11:05:42;;;;;;;5.68;2.00;;;;;;;21.84;70.37;101035.34;5048072;28;20079;-48
2022/06/25 11:08:34;;;;;;;11.38;1.92;;;;;;;21.84;70.86;101044.50;5050478;28;20403;-48
2022/06/25 11:11:32;;;;;;;3.75;1.85;;;;;;;21.86;70.92;101035.81;5045650;28;20127;-48
2022/06/25 11:14:24;;;;;;;2.13;1.60;;;;;;;21.89;70.36;101032.38;5066743;28;20041;-47
2022/06/25 11:17:12;;;;;;;2.80;1.63;;;;;;;21.92;69.80;101026.16;5062811;28;20063;-49
2022/06/25 11:20:08;;;;;;;3.30;1.67;;;;;;;21.98;70.30;101024.78;5049788;28;20049;-47
2022/06/25 11:22:55;;;;;;;2.45;1.50;;;;;;;22.03;69.42;101030.13;5044499;28;20048;-48
2022/06/25 11:28:48;;;;;;;1.77;1.58;;;;;;;22.07;68.29;101031.06;5032446;28;20067;-49
2022/06/25 11:31:36;;;;;;;2.22;1.50;;;;;;;22.09;67.70;101036.28;5052097;28;20044;-49
2022/06/25 11:34:25;;;;;;;4.65;1.75;;;;;;;22.11;67.43;101039.53;5057035;28;20077;-50
2022/06/25 11:37:13;;;;;;;4.85;2.08;;;;;;;22.13;67.51;101032.47;5057981;28;20044;-49
2022/06/25 11:40:00;;;;;;;2.28;1.33;;;;;;;22.20;66.43;101031.09;5039408;28;20052;-48
2022/06/25 11:42:48;;;;;;;1.63;1.35;;;;;;;22.27;65.75;101037.78;5057129;28;20052;-47
2022/06/25 11:45:55;;;;;;;3.78;1.60;;;;;;;22.37;65.88;101033.75;5034061;28;20049;-50
2022/06/25 11:48:43;;;;;;;1.92;1.20;;;;;;;22.46;64.55;101036.41;5063082;28;20045;-48
2022/06/25 11:51:31;;;;;;;2.25;1.40;;;;;;;22.49;63.64;101039.31;5048683;28;20041;-47
2022/06/25 11:54:24;;;;;;;4.32;1.65;;;;;;;22.54;63.50;101039.09;5040889;28;20399;-47
2022/06/25 11:57:23;;;;;;;1.95;1.23;;;;;;;22.59;61.79;101035.28;5051417;28;20068;-53
2022/06/25 12:00:13;;;;;;;1.90;1.30;;;;;;;22.63;62.43;101038.19;5067040;28;20052;-48
2022/06/25 12:03:05;;;;;;;1.40;1.30;;;;;;;22.59;62.90;101029.75;5056214;28;20099;-47
2022/06/25 12:05:58;;;;;;;2.83;1.50;;;;;;;22.57;63.35;101029.28;5047565;28;20040;-44
2022/06/25 12:08:46;;;;;;;3.78;1.52;;;;;;;22.59;63.51;101038.06;5057996;28;20052;-47
2022/06/25 12:11:33;;;;;;;2.08;1.40;;;;;;;22.59;63.14;101028.94;5057592;28;20048;-49
2022/06/25 12:14:31;;;;;;;1.80;1.27;;;;;;;22.63;63.37;101032.63;5047978;28;20056;-48
2022/06/25 12:17:19;;;;;;;3.30;1.27;;;;;;;22.68;61.76;101027.69;5067768;28;20051;-49
2022/06/25 12:20:12;;;;;;;1.73;1.40;;;;;;;22.70;61.47;101022.56;5057934;28;20052;-48
2022/06/25 12:23:04;;;;;;;1.85;1.33;;;;;;;22.77;61.89;101022.81;5072311;28;20479;-48
2022/06/25 12:25:52;;;;;;;4.63;1.65;;;;;;;22.82;61.74;101016.22;5059339;28;20040;-50
2022/06/25 12:28:40;;;;;;;2.55;1.40;;;;;;;22.86;62.76;101028.25;5061119;28;20063;-48
2022/06/25 12:31:28;;;;;;;3.58;1.73;;;;;;;22.84;62.65;101027.78;5072605;28;20052;-45
2022/06/25 12:34:15;;;;;;;2.90;1.55;;;;;;;22.87;62.01;101031.84;5072409;28;20049;-45
2022/06/25 12:37:03;;;;;;;2.45;1.17;;;;;;;22.90;62.12;101031.16;5058768;28;20033;-46
2022/06/25 12:39:51;;;;;;;1.75;1.35;;;;;;;22.93;61.77;101031.28;5044391;28;21642;-47
2022/06/25 12:42:54;;;;;;;2.05;1.50;;;;;;;22.96;62.88;101038.91;5054097;28;20057;-46
2022/06/25 12:45:43;;;;;;;4.28;1.75;;;;;;;23.02;63.32;101031.19;5055013;28;20052;-48
2022/06/25 12:48:31;;;;;;;1.85;1.50;;;;;;;23.06;62.68;101025.75;5057926;28;20098;-49
2022/06/25 12:51:19;;;;;;;2.53;1.52;;;;;;;23.10;60.55;101035.00;5054815;28;20077;-50
2022/06/25 12:54:07;;;;;;;2.38;1.17;;;;;;;23.14;61.60;101024.81;5057611;28;20049;-50
2022/06/25 12:56:54;;;;;;;4.88;1.95;;;;;;;23.12;60.17;101024.34;5047371;28;20502;-48
2022/06/25 12:59:48;;;;;;;4.72;1.38;;;;;;;23.12;60.46;101016.03;5053312;28;20106;-49
2022/06/25 13:02:37;;;;;;;4.40;1.77;;;;;;;23.09;59.97;101017.53;5036163;28;20063;-48
2022/06/25 13:05:30;;;;;;;4.78;1.85;;;;;;;23.14;59.66;101008.16;5052772;28;20049;-51
2022/06/25 13:08:18;;;;;;;2.00;1.65;;;;;;;23.23;61.06;101014.38;5065005;28;20052;-53
2022/06/25 13:11:05;;;;;;;4.55;2.15;;;;;;;23.30;63.11;101020.16;5054284;28;20048;-51
2022/06/25 13:13:53;;;;;;;5.35;1.95;;;;;;;23.32;60.75;101015.06;5054836;28;20045;-50
2022/06/25 13:16:41;;;;;;;3.40;1.70;;;;;;;23.33;60.39;101016.69;5062737;28;20045;-49
2022/06/25 13:19:29;;;;;;;5.72;2.17;;;;;;;23.38;60.59;101013.66;5070891;28;20052;-50
2022/06/25 13:22:17;;;;;;;7.32;2.40;;;;;;;23.43;61.94;101020.97;5055971;28;20492;-49